Flugplatz Leer-Papenburg

Für EDWF sind keine METAR/TAF Berichte vorhanden.
Es werden die Flugwettermeldungen vom Flugplatz Wittmundhafen Airport in 34 km Entfernung angezeigt.

Bericht für ETNT

vom 15.10. um 08:20 UTC

Wind 4 kt aus 180°

Sichtweite 10 km oder mehr

aufgelockert bewölkt in 31000 ft

Temperatur 16.0°C

Taupunkt 13.0°C

Luftfeuchtigkeit 82%

Luftdruck 1005 hPa

ETNT 150820Z 18004KT 9999 SCT310 16/13 Q1005 BLU+BLU+

Prognose für ETNT

vom 15.10. um 00:00 UTC

Zwischen 00:00 UTC und 00:00 UTC

Wind 7 kt aus 180°

Sichtweite 10 km oder mehr

keine signifikanten Wettererscheinungen

aufgelockert bewölkt in 7000 ft

aufgebrochene Bewölkung in 25000 ft


Zwischen 00:00 UTC und 00:00 UTC zeitweise

Wind 12 kt aus 220°

Sichtweite 5000 m

schwacher Sprühregen

schwacher Regen

gering bewölkt in 1500 ft

aufgebrochene Bewölkung in 3000 ft

bedeckt in 7000 ft

TAF ETNT 150725Z 1508/1517 18007KT 9999 NSW SCT070 BKN250 TEMPO 1511/1517 22012KT 5000 -DZRA FEW015 BKN030 OVC070 BY ETGL
Impressum